San Gregorio, CA

5:46 PM PDT on September 30, 2014 (GMT -0700)
Pinnacle Ranch | Change Station
CLOSE
Current Station
Personal Weather Station
Location: San Gregorio, CA
Elevation: 570 ft
Nearby Weather Stations

Elev 570 ft 37.30 °N, 122.38 °W | Updated 9 seconds ago

Clear
Clear
56.0 °F
Feels Like 56.0 °F
N
8.0
Wind Variable Wind from NW
Gusts 14.0 mph

Today
High -- | Low -- °F
--% Chance of Precip.
Yesterday
High -- | Low -- °F
Precip. -- in
7:04 AM 6:54 PM
Waxing Crescent, 41% visible
Pressure 29.88 in
Visibility 10.0 miles
Clouds Clear
Dew Point Not available.
Humidity Not available.
Rainfall 0.00 in
Snow Depth 0 in , 0 in , 0 in
UV 4 out of 12
Pollen 2.80 out of 12
Air Quality Not available.
Flu Activity Not available.
METAR KSQL 302247Z 35007KT 10SM SKC 25/12 A2988

More Conditions Fewer Conditions

Pressure 29.88 in
Visibility 10.0 miles
Clouds Clear
Dew Point Not available.
Humidity Not available.
Rainfall 0.00 in
Snow Depth 0 in , 0 in , 0 in
UV 4 out of 12
Pollen 2.80 out of 12
Air Quality Not available.
Flu Activity Not available.
METAR KSQL 302247Z 35007KT 10SM SKC 25/12 A2988

More Conditions Fewer Conditions

10-Day Weather Forecast

Almanac

Astronomy

Sep. 30, 2014 Rise Set
Actual Time 7:04 AM PDT 6:54 PM PDT
Civil Twilight 6:38 AM PDT 7:19 PM PDT
Nautical Twilight 6:07 AM PDT 7:50 PM PDT
Astronomical Twilight 5:37 AM PDT 8:20 PM PDT
Moon 1:11 PM PDT (9/30) 11:35 PM PDT (9/30)
Length of Visible Light 12h 41m
Length of Day
11h 49m
Tomorrow will be 2m 21s shorter.
Waxing Crescent, 41% of the Moon is Illuminated
Today
Waxing Crescent
Oct 1
First Quarter
Oct 8
Full
Oct 15
Last Quarter
Oct 23
New

Today's Extremes

State Highs State Lows

Community

WunderPhotos

Upload Photos

1,757,801 photos uploaded!

Nearby

Snow Depth

Station Depth Elevation
Adin Mountain 0 in 6200 ft
Hagan's Meadow 0 in 8000 ft
Spratt Creek 0 in 6200 ft
Rubicon #2 0 in 7500 ft
Blue Lakes 0 in 8000 ft

Earthquake Activity

City Distance Mag. Time & Date
East Foothills, California 34 miles 2.6 3:34 PM PDT
2014-09-30
South Dos Palos, California 96 miles 2.7 3:08 PM PDT
2014-09-30
South Dos Palos, California 95 miles 2.5 9:18 PM PDT
2014-09-29
American Canyon, California 61 miles 2.5 12:17 AM PDT
2014-09-29
Minimum magnitude displayed is 2.5.

Coastal Water Temperatures

Place Temperature
Point Reyes, CA 61.0 °F
San Francisco, CA 64.0 °F
Richmond, CA 68.0 °F

Nearby Weather Stations